Terminal Aerodrome Forecast
Issued by NWS Anchorage, AK

Home | Current Version | Previous Version | Text Only | Print | Product List | Glossary On
Versions: 1 2 3 4 5 6 7 8 9 10 11 12 13 14 15 16 17 18 19 20 21 22 23 24 25 26 27
000
FTAK31 PANC 221005 AAB
TAFANC
TAF AMD
PANC 221005Z 2210/2312 36006KT 1 1/2SM -SN BR SCT008 OVC023
      TEMPO 2210/2212 3SM -SN BR SCT015 OVC020
     FM221800 VRB04KT 5SM -SHSN BKN025 OVC040
     FM222100 VRB04KT P6SM SCT030 BKN060=

USA.gov is the U.S. government's official web portal to all federal, state and local government web resources and services.